Gil Vicente — CSKG — position and weather

sailwx.info

Track history (hours):
 
Tides and Currents Weather Stations Pressure Air Temp Water Temp Dewpoint Dewpoint Depression Visibility Wind Speed Wind Dir Waves Ship Positions

Gil Vicente

Last reported at 2015-Jul-06 19:34 UTC. Time now 2015-Jul-07 02:26 UTC.
Position N 38°42' W 009°08'.

Length 49 m.

Type: Passenger vessel. MMSI: 263701390.

Date/timePositionNaut miles runAvg speedWind from/ knotsBaromVisibWave heightAir tempDewpointWater temp
2015-Jul-06 19:34N 38°42' W 009°08'0 0.4
2015-Jul-06 18:33N 38°42' W 009°08'1 1.0
2015-Jul-06 17:34N 38°41' W 009°07'3 2.9
2015-Jul-06 16:33N 38°39' W 009°05'4 3.6
2015-Jul-06 15:34N 38°42' W 009°08'1 1.3
2015-Jul-06 14:33N 38°41' W 009°08'0 0.1
2015-Jul-06 13:34N 38°41' W 009°08'0 0.3
2015-Jul-06 12:34N 38°41' W 009°08'1 0.5
2015-Jul-06 11:33N 38°41' W 009°08'0 0.4
2015-Jul-06 10:34N 38°41' W 009°08'3 2.9
2015-Jul-06 09:33N 38°39' W 009°05'2 2.1
2015-Jul-06 08:34N 38°40' W 009°07'2 2.4
2015-Jul-06 07:33N 38°42' W 009°08'2 1.7
2015-Jul-06 06:34N 38°41' W 009°08'3 2.7
2015-Jul-06 05:33N 38°39' W 009°05'  
2015-Jul-03 09:24N 38°39' W 009°05'1 1.0
2015-Jul-03 08:33N 38°39' W 009°06'3 2.9
2015-Jul-03 07:33N 38°42' W 009°08'0 0.4
2015-Jul-03 06:33N 38°42' W 009°08'4 0.2
2015-Jul-02 11:16N 38°39' W 009°05'0 0.0
2015-Jul-02 10:33N 38°39' W 009°05'0 0.0
2015-Jul-02 09:33N 38°39' W 009°05'0 0.0
2015-Jul-02 08:33N 38°39' W 009°05'2 1.8
2015-Jul-02 07:34N 38°40' W 009°07'2 1.8
2015-Jul-02 06:33N 38°39' W 009°05'0 0.0
2015-Jul-02 05:33N 38°39' W 009°05'0 0.0
2015-Jul-02 04:33N 38°39' W 009°05'4 0.7
2015-Jul-01 22:33N 38°42' W 009°08'2 1.5
2015-Jul-01 21:33N 38°41' W 009°08'0 0.0
2015-Jul-01 20:33N 38°41' W 009°08'3 2.7
2015-Jul-01 19:33N 38°39' W 009°05'1 0.6
2015-Jul-01 18:33N 38°39' W 009°06'1 0.6
2015-Jul-01 17:33N 38°39' W 009°05'1 0.7
2015-Jul-01 16:34N 38°39' W 009°06'1 0.6
2015-Jul-01 15:33N 38°39' W 009°05'0 0.0
2015-Jul-01 08:32N 38°39' W 009°05'0 0.2
2015-Jul-01 07:33N 38°39' W 009°05'0 0.3
2015-Jul-01 06:33N 38°39' W 009°05'0 0.1
2015-Jul-01 05:33N 38°39' W 009°05'0 0.0
2015-Jun-30 20:30N 38°39' W 009°05'0 0.0
2015-Jun-30 19:33N 38°39' W 009°05'4 3.6
2015-Jun-30 18:33N 38°42' W 009°08'2 1.8
2015-Jun-30 17:34N 38°40' W 009°07'2 2.1
2015-Jun-30 16:33N 38°39' W 009°05'0 0.0
2015-Jun-30 15:34N 38°39' W 009°05'0 0.0
2015-Jun-30 14:33N 38°39' W 009°05'4 0.7
2015-Jun-30 08:33N 38°42' W 009°08'0 0.0
2015-Jun-30 07:33N 38°42' W 009°08'3 2.6
2015-Jun-30 06:33N 38°40' W 009°07'2 0.0
2015-Jun-28 08:33N 38°39' W 009°05'0 0.0
2015-Jun-28 07:33N 38°39' W 009°05'2 1.6
2015-Jun-28 06:33N 38°40' W 009°07'2 1.6
2015-Jun-28 05:34N 38°41' W 009°08'1 0.9
2015-Jun-28 04:33N 38°42' W 009°08'4 1.2
2015-Jun-28 01:26N 38°39' W 009°05'0 0.5
2015-Jun-28 00:33N 38°39' W 009°05'0 0.0
2015-Jun-27 23:34N 38°39' W 009°05'0 0.0
2015-Jun-27 22:33N 38°39' W 009°05'1 1.3
2015-Jun-27 21:33N 38°40' W 009°07'0 0.1
2015-Jun-27 20:33N 38°40' W 009°07'0 0.3
2015-Jun-27 19:33N 38°40' W 009°06'1 1.1
2015-Jun-27 18:34N 38°40' W 009°08'0 0.5
2015-Jun-27 17:33N 38°41' W 009°08'0 0.2
2015-Jun-27 16:34N 38°41' W 009°08'0 0.2
2015-Jun-27 15:34N 38°41' W 009°08'0 0.2
2015-Jun-27 14:33N 38°41' W 009°08'3 3.1
2015-Jun-27 13:33N 38°39' W 009°05'0 0.0
2015-Jun-27 12:18N 38°39' W 009°05'2 2.1
2015-Jun-27 11:33N 38°40' W 009°07'0 0.4
2015-Jun-27 10:33N 38°40' W 009°06'0 0.3
2015-Jun-27 09:33N 38°40' W 009°06'0 0.2
2015-Jun-27 08:34N 38°40' W 009°07'0 0.3
2015-Jun-27 07:34N 38°40' W 009°06'0 0.3
2015-Jun-27 06:33N 38°40' W 009°07'1 1.1
2015-Jun-27 05:34N 38°41' W 009°08'1 1.2
2015-Jun-27 04:33N 38°42' W 009°08'4 3.6
2015-Jun-27 03:33N 38°39' W 009°05'0 0.0
2015-Jun-27 02:33N 38°39' W 009°05'0 0.0
2015-Jun-27 01:33N 38°39' W 009°05'0 0.3
2015-Jun-27 00:33N 38°39' W 009°05'0 0.1
2015-Jun-26 23:33N 38°39' W 009°05'0 0.0
2015-Jun-26 22:34N 38°39' W 009°05'1 1.4
2015-Jun-26 21:34N 38°40' W 009°07'0 0.1
2015-Jun-26 20:33N 38°40' W 009°07'  
Track history (hours):
 
Tides and Currents Weather Stations Pressure Air Temp Water Temp Dewpoint Dewpoint Depression Visibility Wind Speed Wind Dir Waves Ship Positions

Gil Vicente

Last reported at 2015-Jul-06 19:34 UTC. Time now 2015-Jul-07 02:26 UTC.
Position N 38°42' W 009°08'.

Length 49 m.

Type: Passenger vessel. MMSI: 263701390.

Date/timePositionNaut miles runAvg speedWind from/ knotsBaromVisibWave heightAir tempDewpointWater temp
2015-Jul-06 19:34N 38°42' W 009°08'0 0.4
2015-Jul-06 18:33N 38°42' W 009°08'1 1.0
2015-Jul-06 17:34N 38°41' W 009°07'3 2.9
2015-Jul-06 16:33N 38°39' W 009°05'4 3.6
2015-Jul-06 15:34N 38°42' W 009°08'1 1.3
2015-Jul-06 14:33N 38°41' W 009°08'0 0.1
2015-Jul-06 13:34N 38°41' W 009°08'0 0.3
2015-Jul-06 12:34N 38°41' W 009°08'1 0.5
2015-Jul-06 11:33N 38°41' W 009°08'0 0.4
2015-Jul-06 10:34N 38°41' W 009°08'3 2.9
2015-Jul-06 09:33N 38°39' W 009°05'2 2.1
2015-Jul-06 08:34N 38°40' W 009°07'2 2.4
2015-Jul-06 07:33N 38°42' W 009°08'2 1.7
2015-Jul-06 06:34N 38°41' W 009°08'3 2.7
2015-Jul-06 05:33N 38°39' W 009°05'  
2015-Jul-03 09:24N 38°39' W 009°05'1 1.0
2015-Jul-03 08:33N 38°39' W 009°06'3 2.9
2015-Jul-03 07:33N 38°42' W 009°08'0 0.4
2015-Jul-03 06:33N 38°42' W 009°08'4 0.2
2015-Jul-02 11:16N 38°39' W 009°05'0 0.0
2015-Jul-02 10:33N 38°39' W 009°05'0 0.0
2015-Jul-02 09:33N 38°39' W 009°05'0 0.0
2015-Jul-02 08:33N 38°39' W 009°05'2 1.8
2015-Jul-02 07:34N 38°40' W 009°07'2 1.8
2015-Jul-02 06:33N 38°39' W 009°05'0 0.0
2015-Jul-02 05:33N 38°39' W 009°05'0 0.0
2015-Jul-02 04:33N 38°39' W 009°05'4 0.7
2015-Jul-01 22:33N 38°42' W 009°08'2 1.5
2015-Jul-01 21:33N 38°41' W 009°08'0 0.0
2015-Jul-01 20:33N 38°41' W 009°08'3 2.7
2015-Jul-01 19:33N 38°39' W 009°05'1 0.6
2015-Jul-01 18:33N 38°39' W 009°06'1 0.6
2015-Jul-01 17:33N 38°39' W 009°05'1 0.7
2015-Jul-01 16:34N 38°39' W 009°06'1 0.6
2015-Jul-01 15:33N 38°39' W 009°05'0 0.0
2015-Jul-01 08:32N 38°39' W 009°05'0 0.2
2015-Jul-01 07:33N 38°39' W 009°05'0 0.3
2015-Jul-01 06:33N 38°39' W 009°05'0 0.1
2015-Jul-01 05:33N 38°39' W 009°05'0 0.0
2015-Jun-30 20:30N 38°39' W 009°05'0 0.0
2015-Jun-30 19:33N 38°39' W 009°05'4 3.6
2015-Jun-30 18:33N 38°42' W 009°08'2 1.8
2015-Jun-30 17:34N 38°40' W 009°07'2 2.1
2015-Jun-30 16:33N 38°39' W 009°05'0 0.0
2015-Jun-30 15:34N 38°39' W 009°05'0 0.0
2015-Jun-30 14:33N 38°39' W 009°05'4 0.7
2015-Jun-30 08:33N 38°42' W 009°08'0 0.0
2015-Jun-30 07:33N 38°42' W 009°08'3 2.6
2015-Jun-30 06:33N 38°40' W 009°07'2 0.0
2015-Jun-28 08:33N 38°39' W 009°05'0 0.0
2015-Jun-28 07:33N 38°39' W 009°05'2 1.6
2015-Jun-28 06:33N 38°40' W 009°07'2 1.6
2015-Jun-28 05:34N 38°41' W 009°08'1 0.9
2015-Jun-28 04:33N 38°42' W 009°08'4 1.2
2015-Jun-28 01:26N 38°39' W 009°05'0 0.5
2015-Jun-28 00:33N 38°39' W 009°05'0 0.0
2015-Jun-27 23:34N 38°39' W 009°05'0 0.0
2015-Jun-27 22:33N 38°39' W 009°05'1 1.3
2015-Jun-27 21:33N 38°40' W 009°07'0 0.1
2015-Jun-27 20:33N 38°40' W 009°07'0 0.3
2015-Jun-27 19:33N 38°40' W 009°06'1 1.1
2015-Jun-27 18:34N 38°40' W 009°08'0 0.5
2015-Jun-27 17:33N 38°41' W 009°08'0 0.2
2015-Jun-27 16:34N 38°41' W 009°08'0 0.2
2015-Jun-27 15:34N 38°41' W 009°08'0 0.2
2015-Jun-27 14:33N 38°41' W 009°08'3 3.1
2015-Jun-27 13:33N 38°39' W 009°05'0 0.0
2015-Jun-27 12:18N 38°39' W 009°05'2 2.1
2015-Jun-27 11:33N 38°40' W 009°07'0 0.4
2015-Jun-27 10:33N 38°40' W 009°06'0 0.3
2015-Jun-27 09:33N 38°40' W 009°06'0 0.2
2015-Jun-27 08:34N 38°40' W 009°07'0 0.3
2015-Jun-27 07:34N 38°40' W 009°06'0 0.3
2015-Jun-27 06:33N 38°40' W 009°07'1 1.1
2015-Jun-27 05:34N 38°41' W 009°08'1 1.2
2015-Jun-27 04:33N 38°42' W 009°08'4 3.6
2015-Jun-27 03:33N 38°39' W 009°05'0 0.0
2015-Jun-27 02:33N 38°39' W 009°05'0 0.0
2015-Jun-27 01:33N 38°39' W 009°05'0 0.3
2015-Jun-27 00:33N 38°39' W 009°05'0 0.1
2015-Jun-26 23:33N 38°39' W 009°05'0 0.0
2015-Jun-26 22:34N 38°39' W 009°05'1 1.4
2015-Jun-26 21:34N 38°40' W 009°07'0 0.1
2015-Jun-26 20:33N 38°40' W 009°07'  

Dump ship's entire track history